Time;durP1;ratioP1;P1;durP2;ratioP2;P2;SDS_P1;SDS_P2;PMS_P1;PMS_P2;Temp;Humidity;BMP_temperature;BMP_pressure;BME280_temperature;BME280_humidity;BME280_pressure;Samples;Min_cycle;Max_cycle;Signal;HPM_P1;HPM_P2
2022/06/23 00:00:37;;;;;;;0.45;0.45;;;22.40;53.90;;;;;;6200884;28;20026;-72
2022/06/23 00:03:39;;;;;;;0.75;0.50;;;22.50;54.00;;;;;;6267841;28;20033;-72
2022/06/23 00:06:52;;;;;;;0.50;0.50;;;22.40;54.00;;;;;;6267214;28;20100;-72
2022/06/23 00:09:58;;;;;;;0.68;0.50;;;22.40;53.90;;;;;;6269255;28;20021;-72
2022/06/23 00:12:59;;;;;;;0.40;0.40;;;22.50;54.00;;;;;;6268808;28;20098;-72
2022/06/23 00:16:03;;;;;;;0.50;0.50;;;22.40;53.90;;;;;;6267582;28;20394;-72
2022/06/23 00:19:07;;;;;;;0.40;0.40;;;22.40;54.00;;;;;;6267635;28;20021;-72
2022/06/23 00:22:10;;;;;;;0.57;0.50;;;22.40;54.00;;;;;;6268975;28;20831;-72
2022/06/23 00:25:41;;;;;;;0.43;0.43;;;22.40;54.00;;;;;;6268567;28;20575;-71
2022/06/23 00:28:43;;;;;;;0.43;0.43;;;22.40;53.90;;;;;;6267649;28;20468;-72
2022/06/23 00:31:52;;;;;;;0.77;0.60;;;22.50;54.00;;;;;;6268654;28;20094;-72
2022/06/23 00:35:01;;;;;;;0.38;0.38;;;22.50;54.00;;;;;;6267307;28;20021;-72
2022/06/23 00:38:02;;;;;;;0.40;0.40;;;22.50;54.00;;;;;;6268648;28;20017;-72
2022/06/23 00:41:04;;;;;;;0.45;0.40;;;22.40;53.90;;;;;;6268752;28;20398;-72
2022/06/23 00:44:13;;;;;;;0.40;0.40;;;22.40;54.00;;;;;;6266768;28;20049;-72
2022/06/23 00:47:22;;;;;;;0.50;0.50;;;22.40;53.90;;;;;;6268503;28;20017;-72
2022/06/23 00:50:32;;;;;;;0.55;0.50;;;22.40;53.90;;;;;;6268551;28;20563;-72
2022/06/23 00:53:59;;;;;;;0.50;0.50;;;22.40;54.00;;;;;;6268269;28;20417;-72
2022/06/23 00:57:27;;;;;;;0.50;0.50;;;22.40;54.00;;;;;;6243302;28;20698;-72
2022/06/23 01:00:35;;;;;;;0.65;0.50;;;22.40;54.00;;;;;;6255427;28;20108;-72
2022/06/23 01:03:55;;;;;;;1.05;0.70;;;22.40;54.00;;;;;;6266454;28;20112;-72
2022/06/23 01:07:20;;;;;;;0.57;0.55;;;22.40;54.00;;;;;;6268119;28;20025;-72
2022/06/23 01:10:32;;;;;;;0.40;0.40;;;22.40;54.10;;;;;;6268312;28;20025;-72
2022/06/23 01:13:58;;;;;;;0.40;0.40;;;22.40;54.80;;;;;;6268201;28;20100;-72
2022/06/23 01:17:16;;;;;;;0.50;0.50;;;22.40;54.10;;;;;;6268328;28;20159;-72
2022/06/23 01:20:17;;;;;;;0.65;0.52;;;22.40;54.10;;;;;;6272138;28;20028;-72
2022/06/23 01:23:27;;;;;;;0.77;0.65;;;22.40;54.10;;;;;;6273158;28;20029;-72
2022/06/23 01:26:52;;;;;;;0.47;0.47;;;22.40;54.00;;;;;;6272450;28;20025;-72
2022/06/23 01:30:03;;;;;;;0.40;0.40;;;22.40;54.00;;;;;;6272677;28;20025;-72
2022/06/23 01:33:17;;;;;;;0.45;0.43;;;22.40;54.00;;;;;;6272718;28;20021;-72
2022/06/23 01:36:21;;;;;;;0.82;0.52;;;22.40;54.00;;;;;;6272272;28;20051;-72
2022/06/23 01:39:54;;;;;;;0.50;0.47;;;22.40;54.00;;;;;;6272792;28;20033;-72
2022/06/23 01:43:12;;;;;;;0.55;0.50;;;22.40;54.10;;;;;;6245392;28;20903;-72
2022/06/23 01:46:25;;;;;;;0.50;0.50;;;22.40;54.10;;;;;;6246396;28;20026;-71
2022/06/23 01:49:34;;;;;;;0.60;0.47;;;22.40;54.00;;;;;;6247796;28;20670;-72
2022/06/23 01:52:35;;;;;;;0.60;0.57;;;22.40;54.10;;;;;;6249231;28;20025;-72
2022/06/23 01:55:59;;;;;;;0.65;0.50;;;22.40;54.10;;;;;;6272134;28;20079;-72
2022/06/23 01:59:00;;;;;;;0.77;0.50;;;22.40;54.10;;;;;;6272233;28;20161;-72
2022/06/23 02:02:10;;;;;;;0.80;0.52;;;22.40;54.10;;;;;;6272288;28;20043;-72
2022/06/23 02:05:17;;;;;;;0.45;0.45;;;22.40;54.10;;;;;;6270558;28;20028;-72
2022/06/23 02:08:40;;;;;;;0.40;0.30;;;22.40;54.10;;;;;;6271998;28;20089;-72
2022/06/23 02:11:52;;;;;;;0.70;0.50;;;22.40;54.10;;;;;;6271893;28;20025;-72
2022/06/23 02:15:07;;;;;;;0.63;0.60;;;22.40;54.00;;;;;;6270412;28;20442;-73
2022/06/23 02:18:32;;;;;;;0.70;0.60;;;22.40;54.00;;;;;;6271358;28;20033;-72
2022/06/23 02:21:51;;;;;;;1.07;0.60;;;22.40;54.10;;;;;;6270364;28;20558;-72
2022/06/23 02:25:03;;;;;;;0.68;0.60;;;22.40;54.10;;;;;;6270098;28;20121;-72
2022/06/23 02:28:23;;;;;;;0.85;0.60;;;22.40;54.10;;;;;;6270415;28;20050;-72
2022/06/23 02:31:47;;;;;;;0.60;0.60;;;22.40;54.10;;;;;;6271206;28;20017;-72
2022/06/23 02:34:51;;;;;;;0.93;0.50;;;22.40;54.10;;;;;;6270096;28;20021;-72
2022/06/23 02:37:57;;;;;;;0.70;0.60;;;22.40;54.10;;;;;;6271427;28;20029;-72
2022/06/23 02:41:18;;;;;;;0.70;0.70;;;22.40;54.20;;;;;;6271111;28;20642;-72
2022/06/23 02:44:18;;;;;;;0.98;0.63;;;22.40;54.10;;;;;;6270972;28;20051;-72
2022/06/23 02:47:33;;;;;;;0.63;0.55;;;22.40;54.20;;;;;;6270984;28;20025;-72
2022/06/23 02:51:12;;;;;;;0.47;0.47;;;22.40;54.20;;;;;;6272116;28;20025;-72
2022/06/23 02:54:15;;;;;;;0.80;0.60;;;22.40;54.10;;;;;;6269946;28;20140;-72
2022/06/23 02:57:43;;;;;;;0.77;0.60;;;22.40;54.10;;;;;;6270853;28;20033;-71
2022/06/23 03:00:53;;;;;;;0.60;0.50;;;22.40;54.10;;;;;;6270230;28;20059;-71
2022/06/23 03:04:06;;;;;;;0.68;0.57;;;22.40;54.10;;;;;;6270128;28;20031;-72
2022/06/23 03:07:23;;;;;;;0.70;0.50;;;22.40;54.10;;;;;;6270032;28;20025;-71
2022/06/23 03:10:34;;;;;;;1.05;0.50;;;22.40;54.10;;;;;;6269843;28;20024;-72
2022/06/23 03:13:44;;;;;;;0.77;0.60;;;22.40;54.10;;;;;;6269952;28;20025;-71
2022/06/23 03:16:55;;;;;;;0.55;0.50;;;22.40;54.10;;;;;;6269601;28;20508;-72
2022/06/23 03:20:15;;;;;;;0.60;0.60;;;22.40;54.10;;;;;;6269793;28;20024;-72
2022/06/23 03:23:19;;;;;;;1.27;0.80;;;22.40;54.10;;;;;;6269619;28;20112;-72
2022/06/23 03:26:50;;;;;;;0.45;0.40;;;22.40;54.20;;;;;;6270898;28;20522;-72
2022/06/23 03:30:18;;;;;;;0.60;0.50;;;22.40;54.10;;;;;;6245274;28;20025;-72
2022/06/23 03:33:31;;;;;;;0.77;0.73;;;22.40;54.10;;;;;;6261340;28;20029;-72
2022/06/23 03:36:41;;;;;;;0.60;0.50;;;22.40;54.10;;;;;;6246220;28;20029;-71
2022/06/23 03:43:34;;;;;;;0.68;0.60;;;22.40;54.10;;;;;;6257981;28;20049;-72
2022/06/23 03:46:44;;;;;;;0.50;0.50;;;22.40;54.10;;;;;;6269409;28;20725;-72
2022/06/23 03:50:15;;;;;;;0.80;0.50;;;22.40;54.10;;;;;;6269840;28;20014;-72
2022/06/23 03:53:27;;;;;;;0.73;0.73;;;22.40;54.20;;;;;;6270271;28;20033;-72
2022/06/23 03:56:41;;;;;;;0.70;0.65;;;22.40;54.10;;;;;;6269751;28;20031;-71
2022/06/23 04:00:17;;;;;;;0.40;0.40;;;22.40;54.20;;;;;;6268480;28;20375;-72
2022/06/23 04:03:24;;;;;;;0.82;0.52;;;22.40;54.10;;;;;;6269715;28;20044;-72
2022/06/23 04:06:35;;;;;;;1.13;0.70;;;22.40;54.20;;;;;;6267764;28;20531;-71
2022/06/23 04:09:37;;;;;;;0.88;0.50;;;22.40;54.10;;;;;;6268404;28;20029;-71
2022/06/23 04:12:45;;;;;;;0.75;0.73;;;22.40;54.20;;;;;;6269735;28;20033;-72
2022/06/23 04:15:49;;;;;;;0.80;0.60;;;22.40;54.20;;;;;;6268391;28;20037;-71
2022/06/23 04:18:51;;;;;;;0.50;0.50;;;22.40;54.20;;;;;;6267874;28;20056;-72
2022/06/23 04:22:04;;;;;;;0.95;0.80;;;22.40;54.20;;;;;;6269424;28;20442;-72
2022/06/23 04:25:07;;;;;;;0.70;0.60;;;22.40;54.20;;;;;;6269062;28;20057;-71
2022/06/23 04:28:25;;;;;;;0.60;0.60;;;22.40;54.20;;;;;;6268288;28;20024;-72
2022/06/23 04:31:31;;;;;;;1.50;0.60;;;22.40;54.20;;;;;;6269196;28;20028;-72
2022/06/23 04:34:36;;;;;;;0.50;0.50;;;22.40;54.20;;;;;;6267931;28;20021;-72
2022/06/23 04:37:54;;;;;;;;;;;22.40;54.20;;;;;;6274151;28;20029;-72
2022/06/23 04:41:18;;;;;;;0.75;0.60;;;22.40;54.20;;;;;;6269919;28;19950;-72
2022/06/23 04:44:31;;;;;;;0.45;0.43;;;22.40;54.20;;;;;;6270409;28;20037;-72
2022/06/23 04:47:32;;;;;;;0.60;0.60;;;22.40;54.20;;;;;;6267903;28;20101;-72
2022/06/23 04:50:59;;;;;;;0.55;0.55;;;22.40;54.20;;;;;;6267683;28;20035;-72
2022/06/23 04:54:10;;;;;;;0.52;0.47;;;22.40;54.20;;;;;;6268859;28;20017;-72
2022/06/23 04:57:17;;;;;;;0.60;0.60;;;22.40;54.20;;;;;;6268855;28;20477;-72
2022/06/23 05:00:38;;;;;;;0.60;0.50;;;22.40;54.20;;;;;;6268744;28;20126;-72
2022/06/23 05:03:44;;;;;;;0.50;0.50;;;22.40;54.20;;;;;;6268196;28;20744;-72
2022/06/23 05:06:48;;;;;;;0.82;0.60;;;22.40;54.20;;;;;;6269006;28;20086;-72
2022/06/23 05:09:51;;;;;;;0.52;0.52;;;22.40;54.20;;;;;;6268847;28;20017;-72
2022/06/23 05:12:59;;;;;;;0.73;0.63;;;22.40;54.20;;;;;;6268821;28;20028;-71
2022/06/23 05:16:24;;;;;;;0.73;0.60;;;22.40;54.20;;;;;;6268335;28;20094;-72
2022/06/23 05:19:32;;;;;;;0.70;0.60;;;22.40;54.30;;;;;;6266828;28;20186;-72
2022/06/23 05:22:45;;;;;;;0.73;0.70;;;22.40;54.30;;;;;;6268825;28;20707;-72
2022/06/23 05:25:48;;;;;;;0.60;0.60;;;22.40;54.20;;;;;;6268255;28;20059;-72
2022/06/23 05:28:58;;;;;;;3.50;0.63;;;22.40;54.20;;;;;;6259856;28;20017;-70
2022/06/23 05:32:06;;;;;;;0.50;0.40;;;22.40;54.20;;;;;;6267473;28;20029;-70
2022/06/23 05:35:24;;;;;;;0.80;0.65;;;22.40;54.20;;;;;;6272355;28;20031;-69
2022/06/23 05:38:39;;;;;;;0.60;0.60;;;22.40;54.30;;;;;;6241402;28;20033;-69
2022/06/23 05:41:45;;;;;;;0.60;0.55;;;22.40;54.20;;;;;;6241385;28;20021;-69
2022/06/23 05:44:58;;;;;;;1.30;0.63;;;22.40;54.30;;;;;;6249667;28;20045;-69
2022/06/23 05:48:00;;;;;;;0.70;0.68;;;22.40;54.30;;;;;;6265878;28;20025;-69
2022/06/23 05:51:10;;;;;;;0.70;0.70;;;22.40;54.20;;;;;;6262030;28;20078;-69
2022/06/23 05:54:21;;;;;;;0.60;0.52;;;22.40;54.20;;;;;;6252811;28;20709;-69
2022/06/23 05:57:46;;;;;;;0.70;0.50;;;22.40;54.20;;;;;;6276337;28;20036;-69
2022/06/23 06:01:29;;;;;;;2.42;0.57;;;22.40;54.20;;;;;;6269602;28;20099;-69
2022/06/23 06:04:54;;;;;;;0.90;0.70;;;22.50;54.60;;;;;;6266083;28;20786;-69
2022/06/23 06:07:56;;;;;;;0.95;0.55;;;22.50;54.40;;;;;;6266194;28;20116;-69
2022/06/23 06:11:00;;;;;;;1.30;0.60;;;22.50;54.30;;;;;;6271925;28;20507;-69
2022/06/23 06:14:03;;;;;;;0.93;0.70;;;22.50;54.30;;;;;;6272617;28;20509;-69
2022/06/23 06:17:05;;;;;;;1.85;0.80;;;22.50;54.30;;;;;;6271384;28;20017;-69
2022/06/23 06:20:08;;;;;;;1.38;0.60;;;22.50;54.40;;;;;;6272296;28;20017;-69
2022/06/23 06:23:17;;;;;;;4.10;0.73;;;22.40;54.30;;;;;;6272131;28;20021;-69
2022/06/23 06:26:21;;;;;;;0.80;0.65;;;22.40;54.30;;;;;;6270247;28;20144;-69
2022/06/23 06:29:31;;;;;;;1.02;0.82;;;22.40;54.40;;;;;;6270761;28;20029;-69
2022/06/23 06:32:38;;;;;;;1.05;0.60;;;22.40;54.30;;;;;;6270016;28;20025;-69
2022/06/23 06:35:42;;;;;;;1.30;0.80;;;22.40;54.30;;;;;;6271642;28;20039;-69
2022/06/23 06:38:43;;;;;;;0.77;0.73;;;22.40;54.30;;;;;;6271813;28;20021;-69
2022/06/23 06:41:49;;;;;;;1.55;0.70;;;22.40;54.30;;;;;;6271576;28;20036;-69
2022/06/23 06:44:52;;;;;;;0.80;0.63;;;22.40;54.30;;;;;;6270892;28;20072;-69
2022/06/23 06:47:53;;;;;;;0.50;0.40;;;22.40;54.30;;;;;;6255474;28;20113;-69
2022/06/23 06:51:00;;;;;;;1.63;0.90;;;22.40;54.30;;;;;;6258287;28;20027;-69
2022/06/23 06:54:20;;;;;;;0.73;0.70;;;22.40;54.30;;;;;;6283063;28;20024;-69
2022/06/23 06:57:35;;;;;;;1.05;0.73;;;22.40;54.30;;;;;;6256959;28;20028;-69
2022/06/23 07:01:06;;;;;;;0.88;0.80;;;22.50;54.30;;;;;;6286638;28;20498;-71
2022/06/23 07:04:16;;;;;;;5.45;0.68;;;22.40;54.10;;;;;;6274442;28;20043;-70
2022/06/23 07:07:27;;;;;;;1.83;0.60;;;22.50;54.20;;;;;;6274622;28;20028;-70
2022/06/23 07:10:39;;;;;;;0.90;0.68;;;22.50;54.10;;;;;;6267806;28;20562;-70
2022/06/23 07:13:50;;;;;;;1.50;0.50;;;22.60;54.10;;;;;;6262686;28;20506;-71
2022/06/23 07:16:58;;;;;;;0.90;0.77;;;22.60;54.00;;;;;;6269715;28;20021;-71
2022/06/23 07:20:05;;;;;;;1.67;0.63;;;22.60;54.10;;;;;;6271326;28;20025;-71
2022/06/23 07:23:13;;;;;;;1.27;0.52;;;22.60;54.10;;;;;;6270045;28;20033;-71
2022/06/23 07:26:38;;;;;;;5.55;0.90;;;22.60;54.00;;;;;;6271065;28;20083;-71
2022/06/23 07:30:00;;;;;;;0.90;0.60;;;22.60;54.00;;;;;;6271782;28;20075;-71
2022/06/23 07:33:16;;;;;;;1.00;0.60;;;22.60;53.90;;;;;;6269842;28;20112;-71
2022/06/23 07:36:30;;;;;;;0.50;0.50;;;22.60;53.90;;;;;;6268121;28;20025;-71
2022/06/23 07:39:37;;;;;;;1.45;0.75;;;22.70;54.10;;;;;;6269360;28;20548;-71
2022/06/23 07:43:02;;;;;;;0.68;0.65;;;22.70;54.00;;;;;;6270615;28;20489;-71
2022/06/23 07:46:04;;;;;;;3.97;0.60;;;22.70;54.00;;;;;;6270480;28;20516;-71
2022/06/23 07:49:06;;;;;;;1.85;0.70;;;22.70;53.90;;;;;;6249857;28;20069;-71
2022/06/23 07:52:14;;;;;;;3.80;0.50;;;22.70;53.90;;;;;;6270916;28;20501;-71
2022/06/23 07:55:23;;;;;;;0.90;0.60;;;22.70;54.00;;;;;;6270539;28;20116;-71
2022/06/23 07:58:27;;;;;;;1.77;0.57;;;22.70;54.00;;;;;;6270110;28;20375;-71
2022/06/23 08:01:43;;;;;;;1.70;0.77;;;22.60;53.90;;;;;;6270406;28;20059;-71
2022/06/23 08:04:50;;;;;;;0.52;0.50;;;22.70;54.00;;;;;;6269489;28;20033;-71
2022/06/23 08:07:52;;;;;;;0.43;0.43;;;22.70;54.10;;;;;;6269161;28;20485;-71
2022/06/23 08:14:22;;;;;;;1.75;0.55;;;22.70;54.00;;;;;;6270333;28;20060;-71
2022/06/23 08:17:23;;;;;;;1.85;0.50;;;22.70;54.10;;;;;;6263218;28;20021;-71
2022/06/23 08:20:25;;;;;;;1.08;0.52;;;22.70;54.00;;;;;;6270016;28;20095;-71
2022/06/23 08:23:30;;;;;;;0.85;0.63;;;22.70;54.00;;;;;;6270155;28;20396;-71
2022/06/23 08:26:32;;;;;;;;;;;22.70;54.00;;;;;;6270100;28;20033;-71
2022/06/23 08:29:55;;;;;;;0.50;0.50;;;22.60;53.90;;;;;;6270040;28;20301;-70
2022/06/23 08:32:56;;;;;;;0.75;0.60;;;22.60;53.90;;;;;;6269563;28;20021;-71
2022/06/23 08:35:59;;;;;;;0.73;0.57;;;22.60;53.90;;;;;;6268748;28;20036;-71
2022/06/23 08:39:14;;;;;;;1.20;0.60;;;22.70;54.00;;;;;;6269699;28;20017;-71
2022/06/23 08:42:35;;;;;;;0.77;0.68;;;22.70;54.00;;;;;;6269549;28;20466;-71
2022/06/23 08:45:43;;;;;;;0.52;0.45;;;22.70;54.00;;;;;;6269546;28;20044;-72
2022/06/23 08:48:53;;;;;;;0.82;0.50;;;22.60;54.60;;;;;;6268968;28;20056;-71
2022/06/23 08:52:12;;;;;;;0.50;0.50;;;22.70;54.00;;;;;;6269218;28;20013;-71
2022/06/23 08:55:16;;;;;;;0.82;0.55;;;22.70;54.00;;;;;;6268392;28;20017;-71
2022/06/23 08:58:51;;;;;;;0.80;0.52;;;22.70;54.00;;;;;;6269293;28;20021;-71
2022/06/23 09:02:23;;;;;;;1.65;0.50;;;22.70;54.00;;;;;;6285952;28;20404;-71
2022/06/23 09:05:41;;;;;;;0.65;0.60;;;22.70;54.00;;;;;;6243082;28;20029;-71
2022/06/23 09:08:45;;;;;;;0.77;0.57;;;22.60;53.90;;;;;;6244869;28;20018;-71
2022/06/23 09:12:06;;;;;;;0.63;0.50;;;22.70;54.00;;;;;;6263988;28;20432;-71
2022/06/23 09:15:37;;;;;;;0.60;0.50;;;22.70;54.00;;;;;;6270701;28;20021;-71
2022/06/23 09:18:45;;;;;;;0.80;0.55;;;22.70;54.00;;;;;;6270896;28;20060;-70
2022/06/23 09:22:21;;;;;;;1.40;0.52;;;22.70;53.90;;;;;;6271723;28;20024;-71
2022/06/23 09:25:59;;;;;;;2.17;0.60;;;22.80;54.00;;;;;;6275143;28;20092;-70
2022/06/23 09:29:24;;;;;;;2.92;0.63;;;22.80;53.90;;;;;;6273609;28;20025;-70
2022/06/23 09:32:56;;;;;;;1.70;0.60;;;22.80;53.90;;;;;;6273193;28;20481;-70
2022/06/23 09:36:16;;;;;;;61.03;5.28;;;22.80;53.90;;;;;;6294261;28;20025;-72
2022/06/23 09:39:22;;;;;;;52.05;5.28;;;22.80;54.80;;;;;;6301048;28;20485;-71
2022/06/23 09:42:43;;;;;;;20.98;2.55;;;22.80;54.30;;;;;;6294036;28;20116;-70
2022/06/23 09:45:48;;;;;;;17.63;2.42;;;22.80;54.30;;;;;;6248800;28;20403;-70
2022/06/23 09:49:06;;;;;;;18.33;2.63;;;22.80;54.30;;;;;;6257909;28;20044;-70
2022/06/23 09:52:22;;;;;;;18.10;2.60;;;22.80;54.30;;;;;;6275014;28;20385;-70
2022/06/23 09:55:51;;;;;;;13.75;2.50;;;22.80;54.20;;;;;;6274274;28;20024;-70
2022/06/23 09:59:31;;;;;;;17.92;2.30;;;22.80;54.20;;;;;;6274754;28;20378;-70
2022/06/23 10:02:59;;;;;;;11.93;2.00;;;22.80;54.30;;;;;;6274528;28;20029;-69
2022/06/23 10:06:03;;;;;;;16.88;2.10;;;22.80;54.20;;;;;;6275469;28;20371;-70
2022/06/23 10:09:22;;;;;;;10.43;2.03;;;22.80;54.30;;;;;;6276183;28;20092;-71
2022/06/23 10:12:26;;;;;;;15.13;1.90;;;22.80;54.30;;;;;;6262727;28;20017;-70
2022/06/23 10:15:57;;;;;;;14.88;2.00;;;22.80;54.30;;;;;;6265272;28;20033;-70
2022/06/23 10:19:25;;;;;;;6.80;2.03;;;22.70;54.40;;;;;;6277242;28;20033;-71
2022/06/23 10:22:35;;;;;;;10.70;1.90;;;22.80;54.30;;;;;;6274568;28;20044;-71
2022/06/23 10:25:56;;;;;;;9.35;1.65;;;22.80;54.30;;;;;;6265002;28;20118;-71
2022/06/23 10:29:20;;;;;;;11.23;1.58;;;22.80;54.20;;;;;;6274519;28;20420;-71
2022/06/23 10:32:27;;;;;;;12.70;1.70;;;22.80;54.10;;;;;;6262503;28;20083;-71
2022/06/23 10:35:46;;;;;;;7.47;1.65;;;22.80;54.10;;;;;;6271080;28;20074;-71
2022/06/23 10:39:15;;;;;;;7.40;1.60;;;22.90;54.10;;;;;;6272201;28;20466;-71
2022/06/23 10:42:22;;;;;;;5.18;1.35;;;22.90;54.00;;;;;;6259606;28;20036;-71
2022/06/23 10:45:37;;;;;;;7.95;1.50;;;22.90;54.00;;;;;;6271217;28;20033;-71
2022/06/23 10:48:46;;;;;;;;;;;22.90;54.00;;;;;;6271602;28;20017;-71
2022/06/23 10:52:01;;;;;;;4.45;1.40;;;22.90;53.90;;;;;;6261423;28;19943;-71
2022/06/23 10:55:28;;;;;;;5.07;1.30;;;22.90;54.00;;;;;;6271949;28;20052;-71
2022/06/23 10:58:37;;;;;;;8.02;1.48;;;22.80;54.00;;;;;;6268659;28;20021;-71
2022/06/23 11:01:41;;;;;;;3.63;1.20;;;22.80;54.00;;;;;;6259850;28;20021;-71
2022/06/23 11:04:52;;;;;;;4.82;1.50;;;22.80;54.00;;;;;;6272185;28;20029;-71
2022/06/23 11:08:02;;;;;;;3.45;1.30;;;22.80;54.00;;;;;;6270881;28;20025;-72
2022/06/23 11:11:35;;;;;;;4.90;1.02;;;22.90;54.00;;;;;;6271206;28;20025;-71
2022/06/23 11:14:41;;;;;;;3.22;1.33;;;23.00;54.00;;;;;;6263001;28;20041;-71
2022/06/23 11:17:57;;;;;;;1.70;1.00;;;23.00;54.20;;;;;;6272055;28;20033;-71
2022/06/23 11:21:25;;;;;;;5.30;1.50;;;22.90;54.10;;;;;;6258019;28;20032;-70
2022/06/23 11:24:50;;;;;;;6.80;1.13;;;22.90;54.20;;;;;;6268767;28;20481;-74
2022/06/23 11:28:10;;;;;;;3.20;1.20;;;22.90;54.20;;;;;;6268429;28;20036;-71
2022/06/23 11:31:23;;;;;;;3.30;1.10;;;22.90;54.20;;;;;;6269730;28;20457;-71
2022/06/23 11:34:41;;;;;;;5.88;1.13;;;22.90;54.10;;;;;;6268047;28;20106;-71
2022/06/23 11:38:00;;;;;;;4.28;1.20;;;23.00;54.30;;;;;;6268386;28;20516;-72
2022/06/23 11:41:09;;;;;;;3.42;1.27;;;23.00;54.10;;;;;;6268181;28;20029;-71
2022/06/23 11:44:46;;;;;;;5.32;1.35;;;23.00;54.20;;;;;;6268702;28;20049;-70
2022/06/23 11:48:05;;;;;;;4.00;1.33;;;22.90;54.10;;;;;;6268230;28;20048;-71
2022/06/23 11:51:29;;;;;;;3.78;1.48;;;22.90;54.10;;;;;;6269165;28;20025;-69
2022/06/23 11:54:55;;;;;;;4.95;1.13;;;22.90;54.20;;;;;;6266566;28;20033;-69
2022/06/23 11:58:20;;;;;;;6.78;1.52;;;22.90;54.20;;;;;;6267111;28;20024;-69
2022/06/23 12:01:23;;;;;;;2.95;1.00;;;22.90;54.20;;;;;;6268756;28;20025;-69
2022/06/23 12:04:55;;;;;;;3.53;1.13;;;22.90;54.10;;;;;;6265035;28;20043;-69
2022/06/23 12:07:59;;;;;;;1.80;1.08;;;22.80;54.00;;;;;;6267968;28;20132;-69
2022/06/23 12:11:00;;;;;;;2.22;1.20;;;22.90;54.10;;;;;;6267226;28;20036;-69
2022/06/23 12:14:03;;;;;;;2.72;1.10;;;22.80;54.00;;;;;;6267303;28;20029;-69
2022/06/23 12:17:13;;;;;;;5.00;1.58;;;22.90;54.10;;;;;;6255948;28;20020;-69
2022/06/23 12:20:33;;;;;;;4.43;1.33;;;22.80;54.00;;;;;;6267839;28;20549;-69
2022/06/23 12:23:45;;;;;;;2.90;0.90;;;22.90;54.10;;;;;;6267029;28;20033;-69
2022/06/23 12:26:49;;;;;;;9.77;1.08;;;22.90;54.70;;;;;;6265092;28;20036;-69
2022/06/23 12:29:58;;;;;;;2.47;1.10;;;22.90;54.20;;;;;;6267204;28;20027;-70
2022/06/23 12:33:16;;;;;;;3.63;0.95;;;22.90;54.20;;;;;;6261108;28;20040;-69
2022/06/23 12:36:30;;;;;;;4.53;1.30;;;22.90;54.50;;;;;;6267392;28;20028;-70
2022/06/23 12:39:37;;;;;;;5.10;1.47;;;22.90;54.20;;;;;;6254784;28;20104;-69
2022/06/23 12:42:52;;;;;;;3.42;1.05;;;22.90;55.30;;;;;;6266425;28;20112;-69
2022/06/23 12:45:56;;;;;;;2.75;1.08;;;22.90;54.30;;;;;;6256793;28;20103;-68
2022/06/23 12:49:13;;;;;;;3.88;1.17;;;22.90;54.30;;;;;;6267641;28;20596;-69
2022/06/23 12:52:34;;;;;;;2.75;1.00;;;22.90;54.30;;;;;;6266980;28;20036;-69
2022/06/23 12:56:05;;;;;;;3.35;1.30;;;22.90;54.30;;;;;;6266562;28;20020;-68
2022/06/23 12:59:18;;;;;;;2.35;1.00;;;22.90;54.30;;;;;;6266943;28;20032;-69
2022/06/23 13:02:36;;;;;;;3.53;1.08;;;22.90;54.30;;;;;;6265907;28;20058;-69
2022/06/23 13:05:50;;;;;;;7.57;2.25;;;22.90;54.20;;;;;;6265107;28;20035;-69
2022/06/23 13:09:13;;;;;;;1.73;0.75;;;22.90;54.20;;;;;;6266331;28;20118;-69
2022/06/23 13:12:15;;;;;;;2.97;1.05;;;22.90;54.20;;;;;;6266868;28;20021;-69
2022/06/23 13:15:38;;;;;;;5.97;1.30;;;22.80;54.10;;;;;;6271319;28;20516;-68
2022/06/23 13:18:41;;;;;;;5.70;1.38;;;22.90;54.20;;;;;;6271993;28;20025;-69
2022/06/23 13:21:42;;;;;;;3.50;1.10;;;22.90;54.20;;;;;;6271427;28;20115;-69
2022/06/23 13:24:43;;;;;;;3.80;0.98;;;22.90;54.10;;;;;;6258891;28;20021;-68
2022/06/23 13:27:51;;;;;;;5.72;1.05;;;22.90;54.20;;;;;;6272057;28;20393;-68
2022/06/23 13:30:55;;;;;;;3.30;1.42;;;22.90;54.80;;;;;;6271423;28;20491;-69
2022/06/23 13:34:01;;;;;;;2.60;1.00;;;22.90;54.20;;;;;;6271415;28;20040;-69
2022/06/23 13:37:33;;;;;;;1.55;0.90;;;22.90;54.10;;;;;;6270174;28;20075;-69
2022/06/23 13:41:13;;;;;;;2.55;1.13;;;22.90;54.20;;;;;;6257459;28;20040;-69
2022/06/23 13:44:40;;;;;;;3.20;0.90;;;22.80;54.10;;;;;;6265000;28;20087;-70
2022/06/23 13:47:56;;;;;;;3.85;0.90;;;22.90;54.20;;;;;;6269514;28;20028;-69
2022/06/23 13:51:11;;;;;;;2.33;0.82;;;22.90;54.10;;;;;;6270794;28;20029;-69
2022/06/23 13:54:18;;;;;;;1.27;0.60;;;22.80;54.10;;;;;;6270110;28;20032;-69
2022/06/23 13:57:35;;;;;;;1.83;0.77;;;22.80;54.00;;;;;;6268103;28;20591;-69
2022/06/23 14:00:42;;;;;;;1.85;0.80;;;22.80;54.10;;;;;;6269344;28;20031;-69
2022/06/23 14:03:52;;;;;;;1.25;0.60;;;22.80;54.10;;;;;;6270570;28;20074;-69
2022/06/23 14:07:05;;;;;;;1.23;0.85;;;22.80;54.10;;;;;;6269752;28;20021;-69
2022/06/23 14:10:32;;;;;;;0.90;0.60;;;22.80;54.10;;;;;;6269770;28;20029;-69
2022/06/23 14:14:07;;;;;;;1.55;0.77;;;22.90;54.20;;;;;;6270110;28;20720;-70
2022/06/23 14:17:49;;;;;;;1.63;0.82;;;22.90;54.10;;;;;;6271526;28;20028;-68
2022/06/23 14:21:13;;;;;;;3.13;0.90;;;22.90;54.20;;;;;;6268199;28;20024;-67
2022/06/23 14:24:38;;;;;;;3.08;0.88;;;22.90;54.30;;;;;;6267712;28;20023;-70
2022/06/23 14:27:59;;;;;;;1.10;0.70;;;22.90;54.30;;;;;;6270651;28;20104;-67
2022/06/23 14:31:06;;;;;;;2.30;0.90;;;22.90;54.30;;;;;;6272817;28;20557;-67
2022/06/23 14:34:32;;;;;;;2.80;0.98;;;22.90;54.20;;;;;;6273250;28;20501;-68
2022/06/23 14:37:36;;;;;;;3.88;0.93;;;22.90;54.20;;;;;;6265092;28;20078;-66
2022/06/23 14:41:22;;;;;;;4.75;0.90;;;22.90;54.30;;;;;;6273075;28;20490;-67
2022/06/23 14:44:31;;;;;;;1.00;0.60;;;22.90;54.30;;;;;;6263817;28;20064;-67
2022/06/23 14:47:50;;;;;;;3.25;0.75;;;22.90;54.30;;;;;;6270733;28;20303;-66
2022/06/23 14:51:42;;;;;;;2.63;1.02;;;22.90;54.30;;;;;;6272193;28;20369;-67
2022/06/23 14:54:58;;;;;;;2.10;0.80;;;22.90;54.30;;;;;;6224553;28;20773;-67
2022/06/23 14:58:08;;;;;;;3.63;1.00;;;22.90;54.20;;;;;;6272179;28;20470;-67
2022/06/23 15:01:19;;;;;;;2.83;0.95;;;22.90;54.20;;;;;;6271992;28;20017;-67
2022/06/23 15:04:36;;;;;;;2.13;1.00;;;22.90;54.20;;;;;;6271264;28;20086;-70
2022/06/23 15:07:40;;;;;;;1.75;0.80;;;22.90;54.20;;;;;;6266861;28;20482;-69
2022/06/23 15:10:58;;;;;;;5.43;1.42;;;22.90;54.10;;;;;;6266787;28;20477;-69
2022/06/23 15:14:23;;;;;;;1.83;0.80;;;22.90;53.50;;;;;;6258403;28;20025;-68
2022/06/23 15:17:30;;;;;;;14.10;1.13;;;22.90;51.60;;;;;;6263384;28;20013;-68
2022/06/23 15:21:00;;;;;;;4.38;0.82;;;23.00;51.70;;;;;;6268242;28;20104;-69
2022/06/23 15:24:09;;;;;;;4.63;0.80;;;23.20;50.40;;;;;;6258888;28;20036;-68
2022/06/23 15:27:38;;;;;;;4.03;0.90;;;23.30;49.90;;;;;;6267825;28;20052;-68
2022/06/23 15:31:05;;;;;;;9.35;0.90;;;23.40;50.00;;;;;;6267400;28;20025;-68
2022/06/23 15:34:19;;;;;;;12.23;1.02;;;23.50;48.90;;;;;;6263399;28;20258;-68
2022/06/23 15:37:42;;;;;;;6.30;1.20;;;23.60;49.50;;;;;;6267744;28;20025;-68
2022/06/23 15:40:59;;;;;;;16.08;1.20;;;23.80;48.80;;;;;;6266285;28;20309;-68
2022/06/23 15:44:08;;;;;;;9.52;1.73;;;23.80;49.60;;;;;;6264443;28;20079;-68
2022/06/23 15:47:32;;;;;;;10.57;1.05;;;23.80;48.70;;;;;;6267463;28;20029;-68
2022/06/23 15:50:44;;;;;;;6.55;1.45;;;23.80;48.90;;;;;;6267306;28;20474;-68
2022/06/23 15:54:04;;;;;;;6.30;1.10;;;23.80;48.90;;;;;;6267028;28;20017;-69
2022/06/23 15:57:13;;;;;;;9.65;1.48;;;23.80;48.70;;;;;;6267418;28;20025;-68
2022/06/23 16:00:33;;;;;;;5.40;0.93;;;23.80;48.60;;;;;;6266344;28;20085;-68
2022/06/23 16:03:43;;;;;;;6.97;1.08;;;23.80;48.40;;;;;;6265900;28;20595;-68
2022/06/23 16:06:48;;;;;;;4.20;0.70;;;23.80;48.30;;;;;;6267410;28;20033;-69
2022/06/23 16:09:59;;;;;;;3.08;0.70;;;23.80;48.30;;;;;;6265321;28;20025;-68
2022/06/23 16:13:03;;;;;;;3.28;0.75;;;23.80;48.20;;;;;;6265450;28;20032;-68
2022/06/23 16:16:08;;;;;;;2.90;0.90;;;23.90;48.10;;;;;;6266235;28;20025;-68
2022/06/23 16:19:24;;;;;;;3.17;0.90;;;23.80;48.10;;;;;;6264959;28;20035;-68
2022/06/23 16:22:33;;;;;;;2.53;0.90;;;23.80;48.00;;;;;;6264989;28;20025;-68
2022/06/23 16:25:53;;;;;;;1.27;0.70;;;23.80;47.90;;;;;;6265716;28;20083;-68
2022/06/23 16:29:08;;;;;;;3.38;0.77;;;23.80;47.80;;;;;;6266298;28;20029;-68
2022/06/23 16:32:15;;;;;;;1.23;0.70;;;23.80;47.80;;;;;;6263074;28;20047;-68
2022/06/23 16:36:06;;;;;;;5.35;0.80;;;23.90;47.70;;;;;;6265763;28;20032;-68
2022/06/23 16:39:12;;;;;;;3.92;0.65;;;23.80;47.50;;;;;;6185986;28;20029;-67
2022/06/23 16:42:56;;;;;;;2.00;0.70;;;23.80;47.60;;;;;;6203052;28;20026;-68
2022/06/23 16:46:20;;;;;;;2.47;1.02;;;23.90;47.40;;;;;;6264204;28;20052;-68
2022/06/23 16:49:33;;;;;;;1.75;0.60;;;23.80;47.30;;;;;;6266580;28;20075;-68
2022/06/23 16:52:51;;;;;;;1.95;0.88;;;23.90;47.20;;;;;;6266690;28;20025;-69
2022/06/23 16:56:10;;;;;;;0.80;0.55;;;23.90;47.10;;;;;;6266235;28;20557;-68
2022/06/23 16:59:50;;;;;;;2.15;0.50;;;23.90;47.10;;;;;;6264938;28;20120;-69